createdAt,value
2023-03-26T00:00:57.850Z,60.79
2023-03-26T00:02:00.119Z,60.71
2023-03-26T00:03:02.060Z,60.79
2023-03-26T00:04:06.723Z,60.67
2023-03-26T00:05:09.348Z,60.98
2023-03-26T00:06:17.107Z,61.54
2023-03-26T00:07:19.459Z,61.01
2023-03-26T00:08:22.156Z,60.63
2023-03-26T00:09:24.068Z,60.44
2023-03-26T00:10:26.064Z,60.87
2023-03-26T00:11:29.552Z,60.90
2023-03-26T00:12:31.747Z,60.98
2023-03-26T00:13:33.896Z,60.77
2023-03-26T00:14:35.746Z,61.03
2023-03-26T00:15:37.970Z,61.07
2023-03-26T00:16:42.060Z,61.03
2023-03-26T00:17:46.521Z,61.24
2023-03-26T00:18:49.010Z,61.12
2023-03-26T00:19:50.837Z,61.03
2023-03-26T00:20:52.709Z,61.29
2023-03-26T00:21:54.662Z,61.46
2023-03-26T00:22:56.855Z,61.39
2023-03-26T00:24:08.156Z,61.58
2023-03-26T00:25:10.204Z,61.32
2023-03-26T00:26:12.929Z,60.96
2023-03-26T00:27:14.842Z,61.26
2023-03-26T00:28:21.512Z,61.63
2023-03-26T00:29:24.693Z,61.87
2023-03-26T00:30:27.747Z,62.20
2023-03-26T00:31:29.773Z,62.08
2023-03-26T00:32:32.391Z,61.44
2023-03-26T00:33:38.491Z,62.17
2023-03-26T00:34:41.484Z,62.19
2023-03-26T00:35:47.004Z,62.18
2023-03-26T00:36:54.275Z,61.85
2023-03-26T00:37:56.146Z,61.98
2023-03-26T00:38:58.521Z,62.19
2023-03-26T00:40:06.887Z,62.40
2023-03-26T00:41:24.996Z,62.37
2023-03-26T00:42:26.942Z,62.54
2023-03-26T00:43:32.876Z,62.56
2023-03-26T00:44:35.356Z,62.67
2023-03-26T00:45:37.258Z,62.49
2023-03-26T00:46:39.448Z,62.67
2023-03-26T00:47:43.534Z,62.57
2023-03-26T00:48:46.372Z,62.82
2023-03-26T00:49:49.300Z,62.94
2023-03-26T00:50:51.186Z,63.01
2023-03-26T00:51:53.260Z,62.63
2023-03-26T00:52:55.902Z,62.45
2023-03-26T00:53:58.149Z,62.62
2023-03-26T00:55:00.440Z,62.58
2023-03-26T00:56:02.293Z,62.78
2023-03-26T00:57:06.916Z,62.40
2023-03-26T00:58:12.246Z,62.53
2023-03-26T00:59:14.260Z,62.18
2023-03-26T01:00:18.932Z,62.19
2023-03-26T01:01:27.190Z,62.56
2023-03-26T01:02:29.794Z,62.62
2023-03-26T01:03:35.185Z,62.85
2023-03-26T01:04:37.921Z,62.63
2023-03-26T01:05:55.260Z,62.26
2023-03-26T01:07:02.426Z,62.26
2023-03-26T01:08:20.513Z,62.45
2023-03-26T01:09:30.664Z,62.58
2023-03-26T01:10:38.666Z,62.59
2023-03-26T01:11:42.323Z,62.66
2023-03-26T01:12:44.265Z,62.95
2023-03-26T01:13:52.446Z,62.60
2023-03-26T01:15:00.826Z,62.94
2023-03-26T01:16:07.897Z,62.83
2023-03-26T01:17:12.502Z,63.51
2023-03-26T01:18:14.609Z,63.44
2023-03-26T01:19:42.373Z,63.44
2023-03-26T01:20:46.932Z,63.17
2023-03-26T01:21:49.039Z,62.87
2023-03-26T01:22:54.735Z,63.08
2023-03-26T01:24:01.944Z,63.49
2023-03-26T01:25:04.288Z,63.33
2023-03-26T01:26:32.052Z,63.24
2023-03-26T01:27:44.471Z,62.95
2023-03-26T01:28:46.993Z,63.02
2023-03-26T01:30:10.481Z,63.47
2023-03-26T01:31:44.563Z,63.85
2023-03-26T01:33:01.646Z,63.26
2023-03-26T01:34:37.349Z,62.97
2023-03-26T01:36:01.224Z,62.84
2023-03-26T01:37:20.980Z,63.40
2023-03-26T01:38:46.778Z,63.45
2023-03-26T01:39:57.074Z,63.34
2023-03-26T01:41:10.792Z,63.28
2023-03-26T01:42:21.562Z,63.81
2023-03-26T01:43:49.084Z,63.77
2023-03-26T01:44:59.470Z,63.80
2023-03-26T01:46:05.322Z,63.66
2023-03-26T01:47:08.634Z,64.02
2023-03-26T01:48:10.725Z,64.19
2023-03-26T01:49:15.879Z,63.96
2023-03-26T01:50:18.072Z,64.19
2023-03-26T01:51:32.079Z,64.55
2023-03-26T01:52:34.170Z,64.41
2023-03-26T01:53:42.582Z,63.85
2023-03-26T01:54:46.772Z,63.68
2023-03-26T01:56:12.727Z,63.51
2023-03-26T01:57:40.774Z,63.65
2023-03-26T01:58:42.842Z,63.99
2023-03-26T01:59:44.642Z,64.01
2023-03-26T02:01:03.520Z,64.02
2023-03-26T02:02:30.836Z,64.00
2023-03-26T02:03:39.094Z,64.00
2023-03-26T02:04:53.440Z,64.30
2023-03-26T02:06:37.620Z,64.07
2023-03-26T02:07:58.579Z,63.58
2023-03-26T02:09:06.010Z,64.42
2023-03-26T02:10:24.085Z,64.16
2023-03-26T02:11:34.760Z,64.45
2023-03-26T02:12:37.855Z,64.69
2023-03-26T02:13:42.131Z,64.32
2023-03-26T02:14:44.738Z,64.46
2023-03-26T02:15:59.387Z,64.66
2023-03-26T02:17:01.662Z,64.25
2023-03-26T02:18:04.097Z,63.88
2023-03-26T02:19:09.996Z,63.77
2023-03-26T02:20:14.556Z,63.84
2023-03-26T02:21:22.196Z,63.98
2023-03-26T02:22:29.806Z,63.88
2023-03-26T02:23:35.769Z,63.56
2023-03-26T02:24:38.722Z,63.69
2023-03-26T02:25:42.085Z,64.11
2023-03-26T02:26:44.789Z,64.22
2023-03-26T02:27:47.618Z,64.09
2023-03-26T02:28:50.008Z,64.12
2023-03-26T02:29:52.091Z,63.95
2023-03-26T02:30:57.696Z,63.47
2023-03-26T02:31:59.736Z,64.03
2023-03-26T02:33:02.045Z,63.74
2023-03-26T02:34:04.655Z,63.83
2023-03-26T02:35:07.582Z,63.46
2023-03-26T02:36:12.613Z,63.25
2023-03-26T02:37:18.877Z,64.04
2023-03-26T02:38:25.293Z,63.76
2023-03-26T02:39:27.753Z,63.55
2023-03-26T02:40:30.137Z,63.20
2023-03-26T02:41:32.693Z,63.51
2023-03-26T02:42:35.182Z,64.09
2023-03-26T02:43:37.485Z,63.87
2023-03-26T02:44:42.121Z,63.90
2023-03-26T02:45:46.873Z,63.77
2023-03-26T02:46:52.670Z,63.48
2023-03-26T02:47:56.091Z,63.22
2023-03-26T02:49:03.674Z,63.57
2023-03-26T02:50:06.049Z,64.13
2023-03-26T02:51:09.524Z,63.61
2023-03-26T02:52:12.322Z,63.32
2023-03-26T02:53:14.493Z,63.68
2023-03-26T02:54:26.483Z,63.62
2023-03-26T02:55:29.012Z,63.44
2023-03-26T02:56:32.929Z,63.24
2023-03-26T02:57:36.150Z,63.65
2023-03-26T02:58:39.366Z,63.86
2023-03-26T02:59:42.333Z,63.90
2023-03-26T03:00:47.262Z,63.47
2023-03-26T03:01:50.300Z,63.64
2023-03-26T03:02:54.198Z,64.22
2023-03-26T03:03:57.655Z,64.07
2023-03-26T03:05:01.585Z,63.87
2023-03-26T03:06:05.214Z,64.12
2023-03-26T03:07:08.317Z,64.18
2023-03-26T03:08:10.700Z,63.76
2023-03-26T03:09:13.460Z,64.01
2023-03-26T03:10:21.780Z,64.52
2023-03-26T03:11:25.102Z,64.75
2023-03-26T03:12:27.108Z,65.14
2023-03-26T03:13:29.216Z,64.87
2023-03-26T03:14:31.690Z,64.55
2023-03-26T03:15:34.851Z,64.84
2023-03-26T03:16:36.908Z,65.14
2023-03-26T03:17:40.572Z,65.18
2023-03-26T03:18:42.683Z,64.94
2023-03-26T03:19:45.323Z,64.62
2023-03-26T03:20:47.880Z,64.69
2023-03-26T03:21:49.826Z,64.96
2023-03-26T03:22:51.801Z,64.81
2023-03-26T03:23:55.233Z,64.30
2023-03-26T03:24:59.950Z,63.99
2023-03-26T03:26:02.670Z,63.74
2023-03-26T03:27:06.057Z,63.92
2023-03-26T03:28:08.754Z,64.04
2023-03-26T03:29:10.679Z,64.00
2023-03-26T03:30:13.943Z,64.40
2023-03-26T03:31:18.651Z,64.71
2023-03-26T03:32:22.552Z,64.77
2023-03-26T03:33:25.302Z,64.86
2023-03-26T03:34:27.843Z,65.03
2023-03-26T03:35:30.765Z,65.11
2023-03-26T03:36:33.420Z,65.55
2023-03-26T03:37:36.103Z,65.45
2023-03-26T03:38:39.775Z,66.00
2023-03-26T03:39:41.625Z,65.96
2023-03-26T03:40:45.099Z,65.89
2023-03-26T03:41:49.255Z,65.68
2023-03-26T03:42:51.811Z,65.31
2023-03-26T03:43:54.722Z,65.99
2023-03-26T03:44:58.828Z,66.30
2023-03-26T03:46:03.812Z,66.19
2023-03-26T03:47:07.035Z,66.42
2023-03-26T03:48:09.304Z,66.56
2023-03-26T03:49:11.853Z,67.26
2023-03-26T03:50:13.995Z,66.96
2023-03-26T03:51:18.840Z,66.69
2023-03-26T03:52:21.314Z,66.41
2023-03-26T03:53:26.053Z,67.41
2023-03-26T03:54:28.799Z,67.21
2023-03-26T03:55:32.157Z,67.14
2023-03-26T03:56:36.146Z,67.37
2023-03-26T03:57:40.602Z,67.13
2023-03-26T03:58:45.508Z,66.94
2023-03-26T03:59:58.303Z,67.27
2023-03-26T04:01:04.228Z,67.12
2023-03-26T04:02:09.081Z,67.63
2023-03-26T04:03:14.411Z,67.75
2023-03-26T04:04:17.871Z,67.73
2023-03-26T04:05:21.307Z,67.62
2023-03-26T04:06:25.303Z,67.86
2023-03-26T04:07:32.824Z,67.44
2023-03-26T04:08:39.273Z,67.50
2023-03-26T04:09:41.653Z,67.65
2023-03-26T04:10:45.394Z,67.98
2023-03-26T04:11:51.815Z,67.94
2023-03-26T04:12:54.388Z,67.78
2023-03-26T04:13:56.892Z,68.11
2023-03-26T04:14:59.880Z,67.30
2023-03-26T04:16:01.949Z,66.86
2023-03-26T04:17:05.956Z,67.01
2023-03-26T04:18:12.173Z,67.11
2023-03-26T04:19:15.304Z,67.23
2023-03-26T04:20:19.360Z,67.53
2023-03-26T04:21:21.703Z,67.36
2023-03-26T04:22:24.409Z,67.24
2023-03-26T04:23:29.306Z,66.84
2023-03-26T04:24:34.071Z,66.54
2023-03-26T04:25:39.434Z,66.81
2023-03-26T04:26:41.729Z,66.68
2023-03-26T04:27:44.232Z,66.75
2023-03-26T04:28:56.753Z,67.06
2023-03-26T04:30:01.673Z,66.17
2023-03-26T04:31:04.349Z,66.31
2023-03-26T04:32:12.642Z,66.49
2023-03-26T04:33:15.561Z,66.59
2023-03-26T04:34:26.150Z,65.94
2023-03-26T04:35:30.443Z,66.65
2023-03-26T04:36:34.297Z,66.80
2023-03-26T04:37:41.871Z,67.06
2023-03-26T04:38:49.324Z,67.48
2023-03-26T04:39:52.438Z,67.07
2023-03-26T04:41:00.296Z,67.16
2023-03-26T04:42:05.628Z,66.61
2023-03-26T04:43:13.029Z,67.17
2023-03-26T04:44:17.110Z,66.94
2023-03-26T04:45:23.257Z,66.91
2023-03-26T04:46:28.013Z,66.58
2023-03-26T04:47:30.402Z,66.29
2023-03-26T04:48:32.683Z,66.76
2023-03-26T04:49:35.044Z,66.68
2023-03-26T04:50:37.721Z,66.98
2023-03-26T04:51:41.997Z,67.08
2023-03-26T04:52:45.437Z,66.86
2023-03-26T04:53:54.790Z,66.57
2023-03-26T04:54:57.664Z,67.15
2023-03-26T04:56:02.556Z,66.68
2023-03-26T04:57:11.222Z,66.62
2023-03-26T04:58:14.080Z,67.23
2023-03-26T04:59:26.517Z,66.91
2023-03-26T05:00:29.149Z,67.07
2023-03-26T05:01:37.939Z,67.67
2023-03-26T05:02:41.896Z,66.67
2023-03-26T05:03:45.765Z,66.08
2023-03-26T05:04:50.021Z,65.99
2023-03-26T05:05:53.083Z,66.27
2023-03-26T05:07:00.809Z,66.47
2023-03-26T05:08:03.767Z,67.16
2023-03-26T05:09:05.777Z,66.76
2023-03-26T05:10:13.480Z,65.53
2023-03-26T05:11:15.801Z,62.02
2023-03-26T05:12:18.085Z,58.98
2023-03-26T05:13:20.872Z,57.37
2023-03-26T05:14:23.278Z,57.43
2023-03-26T05:15:25.384Z,56.00
2023-03-26T05:16:29.486Z,54.07
2023-03-26T05:17:34.893Z,51.81
2023-03-26T05:18:37.356Z,49.87
2023-03-26T05:19:40.653Z,49.80
2023-03-26T05:20:43.568Z,51.07
2023-03-26T05:21:46.064Z,52.07
2023-03-26T05:22:50.119Z,53.29
2023-03-26T05:23:53.606Z,54.24
2023-03-26T05:24:56.331Z,54.19
2023-03-26T05:25:58.334Z,55.03
2023-03-26T05:27:00.376Z,56.03
2023-03-26T05:28:19.293Z,55.79
2023-03-26T05:29:24.174Z,56.73
2023-03-26T05:30:26.300Z,57.83
2023-03-26T05:31:30.847Z,58.79
2023-03-26T05:32:34.678Z,58.00
2023-03-26T05:33:37.356Z,58.97
2023-03-26T05:34:40.536Z,58.95
2023-03-26T05:35:43.551Z,58.23
2023-03-26T05:36:45.701Z,58.81
2023-03-26T05:37:51.495Z,57.42
2023-03-26T05:38:56.215Z,57.05
2023-03-26T05:40:00.717Z,57.23
2023-03-26T05:41:08.726Z,57.74
2023-03-26T05:42:10.982Z,58.83
2023-03-26T05:43:14.040Z,58.70
2023-03-26T05:44:16.609Z,59.28
2023-03-26T05:45:18.865Z,60.22
2023-03-26T05:46:22.985Z,59.82
2023-03-26T05:47:27.371Z,59.09
2023-03-26T05:48:29.615Z,58.47
2023-03-26T05:49:31.854Z,57.42
2023-03-26T05:50:33.796Z,56.92
2023-03-26T05:51:35.805Z,56.79
2023-03-26T05:52:44.617Z,57.58
2023-03-26T05:54:15.349Z,57.70
2023-03-26T05:55:20.275Z,56.73
2023-03-26T05:56:25.714Z,55.76
2023-03-26T05:57:35.611Z,55.84
2023-03-26T05:58:42.149Z,55.36
2023-03-26T06:00:04.745Z,55.05
2023-03-26T06:01:17.123Z,56.16
2023-03-26T06:02:19.789Z,56.25
2023-03-26T06:03:24.012Z,55.13
2023-03-26T06:04:28.667Z,54.67
2023-03-26T06:05:37.419Z,53.99
2023-03-26T06:06:40.072Z,53.07
2023-03-26T06:07:42.597Z,53.25
2023-03-26T06:09:01.578Z,52.47
2023-03-26T06:10:04.864Z,51.96
2023-03-26T06:11:08.206Z,51.65
2023-03-26T06:12:11.747Z,51.93
2023-03-26T06:13:16.264Z,51.42
2023-03-26T06:14:18.528Z,50.86
2023-03-26T06:15:25.941Z,49.95
2023-03-26T06:16:28.317Z,50.29
2023-03-26T06:17:30.926Z,49.89
2023-03-26T06:18:35.004Z,50.03
2023-03-26T06:19:38.125Z,50.28
2023-03-26T06:20:41.855Z,50.48
2023-03-26T06:21:44.417Z,50.47
2023-03-26T06:22:47.558Z,52.09
2023-03-26T06:23:51.716Z,48.08
2023-03-26T06:24:58.646Z,47.98
2023-03-26T06:26:01.436Z,48.71
2023-03-26T06:27:04.937Z,48.59
2023-03-26T06:28:07.286Z,48.34
2023-03-26T06:29:10.517Z,47.89
2023-03-26T06:30:12.982Z,47.32
2023-03-26T06:31:17.380Z,46.70
2023-03-26T06:32:20.357Z,47.50
2023-03-26T06:33:24.593Z,47.01
2023-03-26T06:34:28.315Z,46.54
2023-03-26T06:35:31.100Z,47.28
2023-03-26T06:36:33.649Z,47.89
2023-03-26T06:37:36.251Z,47.32
2023-03-26T06:38:38.096Z,46.99
2023-03-26T06:39:41.255Z,46.64
2023-03-26T06:40:45.778Z,46.57
2023-03-26T06:41:49.199Z,45.83
2023-03-26T06:43:08.530Z,45.59
2023-03-26T06:44:13.429Z,45.51
2023-03-26T06:45:19.876Z,45.12
2023-03-26T06:46:26.532Z,45.73
2023-03-26T06:47:29.591Z,45.46
2023-03-26T06:48:33.150Z,44.65
2023-03-26T06:49:36.093Z,45.72
2023-03-26T06:50:38.439Z,45.12
2023-03-26T06:51:41.491Z,45.23
2023-03-26T06:52:44.733Z,44.72
2023-03-26T06:53:47.024Z,44.94
2023-03-26T06:54:51.278Z,44.70
2023-03-26T06:55:57.248Z,45.89
2023-03-26T06:56:59.951Z,47.44
2023-03-26T06:58:02.617Z,47.25
2023-03-26T06:59:04.946Z,46.72
2023-03-26T07:00:26.680Z,47.27
2023-03-26T07:01:36.651Z,46.96
2023-03-26T07:02:53.587Z,46.63
2023-03-26T07:04:07.440Z,46.43
2023-03-26T07:05:18.794Z,46.46
2023-03-26T07:06:28.130Z,47.44
2023-03-26T07:07:35.726Z,47.81
2023-03-26T07:08:52.239Z,47.08
2023-03-26T07:09:57.681Z,47.79
2023-03-26T07:11:01.970Z,47.90
2023-03-26T07:12:04.884Z,47.42
2023-03-26T07:13:08.063Z,47.56
2023-03-26T07:14:11.967Z,47.68
2023-03-26T07:15:15.072Z,47.55
2023-03-26T07:16:17.767Z,47.61
2023-03-26T07:17:22.582Z,48.03
2023-03-26T07:18:24.797Z,47.98
2023-03-26T07:19:27.376Z,48.30
2023-03-26T07:20:29.544Z,47.62
2023-03-26T07:21:31.907Z,47.71
2023-03-26T07:22:35.369Z,47.91
2023-03-26T07:23:42.114Z,49.61
2023-03-26T07:24:48.013Z,48.23
2023-03-26T07:25:51.624Z,47.10
2023-03-26T07:27:24.065Z,46.97
2023-03-26T07:28:40.131Z,47.30
2023-03-26T07:29:47.447Z,46.94
2023-03-26T07:31:20.128Z,46.66
2023-03-26T07:32:25.286Z,45.87
2023-03-26T07:33:39.948Z,46.65
2023-03-26T07:34:49.026Z,46.59
2023-03-26T07:35:57.106Z,46.94
2023-03-26T07:37:12.606Z,46.66
2023-03-26T07:38:30.445Z,46.87
2023-03-26T07:40:03.546Z,47.25
2023-03-26T07:41:24.417Z,47.43
2023-03-26T07:42:41.192Z,47.40
2023-03-26T07:44:03.401Z,46.66
2023-03-26T07:45:21.221Z,46.82
2023-03-26T07:46:34.393Z,47.40
2023-03-26T07:47:37.511Z,47.29
2023-03-26T07:48:45.151Z,47.03
2023-03-26T07:49:47.532Z,46.57
2023-03-26T07:50:50.296Z,47.39
2023-03-26T07:51:53.904Z,47.51
2023-03-26T07:52:56.916Z,48.21
2023-03-26T07:54:04.098Z,47.28
2023-03-26T07:55:07.408Z,47.55
2023-03-26T07:56:18.008Z,46.97
2023-03-26T07:57:40.742Z,47.25
2023-03-26T07:59:07.749Z,47.19
2023-03-26T08:00:37.345Z,47.17
2023-03-26T08:02:20.001Z,47.12
2023-03-26T08:03:44.997Z,47.06
2023-03-26T08:05:19.785Z,47.35
2023-03-26T08:06:34.195Z,47.79
2023-03-26T08:07:58.511Z,48.34
2023-03-26T08:09:04.854Z,47.36
2023-03-26T08:10:39.182Z,46.93
2023-03-26T08:12:06.749Z,46.78
2023-03-26T08:13:22.973Z,46.47
2023-03-26T08:14:36.448Z,47.08
2023-03-26T08:15:46.104Z,46.47
2023-03-26T08:16:56.436Z,45.64
2023-03-26T08:18:21.801Z,45.42
2023-03-26T08:19:44.823Z,45.11
2023-03-26T08:20:51.012Z,44.38
2023-03-26T08:21:54.462Z,44.74
2023-03-26T08:23:19.423Z,43.85
2023-03-26T08:24:47.620Z,44.48
2023-03-26T08:26:31.187Z,44.38
2023-03-26T08:28:12.611Z,43.89
2023-03-26T08:29:45.291Z,44.63
2023-03-26T08:30:47.369Z,44.88
2023-03-26T08:31:49.856Z,44.74
2023-03-26T08:33:13.499Z,44.74
2023-03-26T08:34:15.857Z,45.01
2023-03-26T08:35:17.960Z,45.06
2023-03-26T08:36:19.864Z,44.63
2023-03-26T08:37:22.043Z,44.05
2023-03-26T08:38:23.950Z,44.20
2023-03-26T08:39:25.800Z,44.29
2023-03-26T08:40:48.070Z,44.24
2023-03-26T08:41:52.638Z,43.54
2023-03-26T08:42:54.822Z,43.86
2023-03-26T08:44:02.675Z,43.85
2023-03-26T08:45:23.374Z,43.03
2023-03-26T08:46:34.013Z,43.17
2023-03-26T08:47:45.367Z,43.51
2023-03-26T08:48:59.911Z,43.25
2023-03-26T08:50:20.265Z,43.54
2023-03-26T08:51:31.011Z,43.55
2023-03-26T08:52:48.164Z,44.06
2023-03-26T08:54:06.256Z,43.86
2023-03-26T08:55:37.826Z,43.78
2023-03-26T08:57:06.247Z,43.80
2023-03-26T08:58:33.282Z,44.90
2023-03-26T08:59:41.411Z,45.10
2023-03-26T09:01:05.200Z,44.51
2023-03-26T09:02:54.522Z,44.37
2023-03-26T09:03:59.021Z,43.45
2023-03-26T09:05:20.692Z,44.00
2023-03-26T09:06:54.999Z,43.99
2023-03-26T09:08:18.860Z,44.02
2023-03-26T09:09:39.970Z,43.53
2023-03-26T09:10:51.362Z,43.69
2023-03-26T09:11:56.073Z,43.17
2023-03-26T09:13:09.783Z,43.45
2023-03-26T09:14:24.306Z,43.84
2023-03-26T09:15:32.107Z,44.32
2023-03-26T09:17:02.007Z,44.26
2023-03-26T09:18:09.806Z,42.98
2023-03-26T09:19:49.546Z,42.44
2023-03-26T09:21:16.478Z,42.17
2023-03-26T09:23:07.000Z,40.36
2023-03-26T09:24:37.593Z,40.36
2023-03-26T09:26:11.471Z,39.48
2023-03-26T09:27:38.124Z,38.73
2023-03-26T09:29:18.364Z,37.87
2023-03-26T09:30:41.364Z,37.71
2023-03-26T09:32:02.434Z,37.59
2023-03-26T09:33:28.413Z,36.84
2023-03-26T09:34:57.077Z,37.48
2023-03-26T09:36:32.283Z,37.39
2023-03-26T09:38:06.494Z,36.29
2023-03-26T09:39:36.616Z,37.33
2023-03-26T09:41:01.456Z,36.15
2023-03-26T09:42:41.991Z,36.06
2023-03-26T09:44:21.063Z,37.40
2023-03-26T09:45:43.710Z,36.73
2023-03-26T09:47:10.609Z,37.00
2023-03-26T09:48:24.570Z,36.84
2023-03-26T09:50:02.038Z,36.38
2023-03-26T09:51:09.348Z,36.85
2023-03-26T09:52:14.803Z,37.59
2023-03-26T09:53:41.484Z,37.87
2023-03-26T09:55:19.695Z,37.94
2023-03-26T09:56:30.751Z,38.35
2023-03-26T09:57:53.828Z,37.84
2023-03-26T09:59:08.195Z,37.52
2023-03-26T10:00:31.354Z,38.04
2023-03-26T10:01:53.881Z,38.39
2023-03-26T10:02:55.700Z,38.36
2023-03-26T10:04:16.111Z,39.32
2023-03-26T10:05:41.386Z,38.91
2023-03-26T10:07:05.487Z,39.54
2023-03-26T10:08:18.581Z,39.42
2023-03-26T10:09:20.610Z,39.24
2023-03-26T10:10:53.242Z,38.88
2023-03-26T10:12:15.864Z,38.14
2023-03-26T10:13:26.665Z,38.44
2023-03-26T10:15:18.127Z,38.32
2023-03-26T10:16:44.131Z,38.25
2023-03-26T10:18:28.225Z,39.64
2023-03-26T10:19:47.838Z,38.79
2023-03-26T10:21:03.617Z,37.67
2023-03-26T10:22:09.766Z,38.75
2023-03-26T10:23:18.614Z,38.50
2023-03-26T10:24:57.683Z,38.41
2023-03-26T10:26:14.401Z,39.20
2023-03-26T10:27:34.598Z,37.67
2023-03-26T10:28:36.844Z,37.20
2023-03-26T10:30:04.095Z,37.55
2023-03-26T10:31:37.815Z,38.04
2023-03-26T10:33:11.671Z,37.12
2023-03-26T10:34:28.082Z,37.84
2023-03-26T10:35:31.340Z,38.23
2023-03-26T10:36:43.018Z,37.68
2023-03-26T10:38:06.552Z,38.02
2023-03-26T10:39:36.167Z,38.44
2023-03-26T10:41:07.606Z,39.82
2023-03-26T10:42:16.474Z,39.71
2023-03-26T10:44:07.301Z,40.16
2023-03-26T10:45:37.515Z,40.24
2023-03-26T10:47:10.923Z,40.14
2023-03-26T10:48:27.804Z,40.97
2023-03-26T10:49:41.582Z,41.04
2023-03-26T10:51:53.407Z,41.11
2023-03-26T10:53:12.574Z,41.50
2023-03-26T10:54:20.515Z,42.37
2023-03-26T10:55:40.784Z,43.43
2023-03-26T10:56:47.077Z,44.71
2023-03-26T10:57:56.125Z,46.52
2023-03-26T10:59:05.387Z,47.70
2023-03-26T11:00:37.720Z,49.80
2023-03-26T11:01:54.861Z,51.44
2023-03-26T11:03:20.783Z,52.07
2023-03-26T11:04:42.911Z,54.93
2023-03-26T11:06:16.137Z,54.56
2023-03-26T11:07:38.313Z,53.51
2023-03-26T11:08:55.640Z,53.63
2023-03-26T11:10:01.794Z,53.50
2023-03-26T11:11:16.842Z,52.85
2023-03-26T11:12:26.738Z,51.32
2023-03-26T11:13:29.977Z,49.98
2023-03-26T11:14:37.885Z,49.50
2023-03-26T11:16:03.166Z,47.99
2023-03-26T11:17:40.021Z,47.36
2023-03-26T11:19:08.108Z,47.14
2023-03-26T11:20:31.347Z,47.69
2023-03-26T11:21:38.095Z,48.00
2023-03-26T11:22:43.019Z,46.01
2023-03-26T11:24:08.998Z,44.78
2023-03-26T11:25:26.130Z,43.26
2023-03-26T11:26:55.771Z,44.23
2023-03-26T11:28:09.522Z,44.18
2023-03-26T11:29:31.598Z,44.00
2023-03-26T11:30:49.961Z,44.67
2023-03-26T11:32:15.578Z,44.69
2023-03-26T11:33:26.826Z,44.56
2023-03-26T11:34:58.274Z,44.04
2023-03-26T11:36:07.699Z,43.72
2023-03-26T11:37:18.870Z,43.84
2023-03-26T11:38:37.417Z,44.44
2023-03-26T11:39:51.240Z,44.48
2023-03-26T11:40:56.338Z,43.63
2023-03-26T11:42:07.566Z,43.06
2023-03-26T11:43:13.873Z,42.37
2023-03-26T11:44:27.520Z,41.09
2023-03-26T11:45:38.096Z,40.27
2023-03-26T11:46:44.327Z,40.69
2023-03-26T11:47:54.577Z,40.52
2023-03-26T11:48:59.878Z,39.68
2023-03-26T11:50:05.724Z,39.21
2023-03-26T11:51:11.664Z,39.16
2023-03-26T11:52:15.734Z,39.18
2023-03-26T11:53:20.661Z,39.28
2023-03-26T11:54:22.684Z,39.42
2023-03-26T11:55:27.574Z,39.39
2023-03-26T11:57:04.793Z,39.44
2023-03-26T11:58:18.080Z,39.73
2023-03-26T11:59:45.148Z,39.88
2023-03-26T12:00:54.874Z,40.19
2023-03-26T12:02:24.547Z,39.16
2023-03-26T12:03:30.254Z,40.86
2023-03-26T12:04:41.098Z,40.75
2023-03-26T12:05:53.619Z,38.95
2023-03-26T12:06:59.721Z,39.03
2023-03-26T12:08:27.493Z,38.28
2023-03-26T12:09:29.869Z,39.05
2023-03-26T12:10:41.369Z,37.54
2023-03-26T12:11:45.176Z,38.27
2023-03-26T12:12:47.979Z,38.51
2023-03-26T12:13:58.074Z,38.01
2023-03-26T12:15:01.062Z,37.76
2023-03-26T12:16:15.375Z,36.75
2023-03-26T12:17:36.788Z,36.90
2023-03-26T12:18:41.139Z,36.55
2023-03-26T12:19:45.588Z,36.14
2023-03-26T12:20:49.496Z,37.01
2023-03-26T12:21:52.999Z,35.98
2023-03-26T12:22:59.232Z,38.20
2023-03-26T12:24:05.219Z,35.21
2023-03-26T12:25:21.087Z,35.81
2023-03-26T12:26:56.770Z,36.67
2023-03-26T12:28:13.838Z,36.50
2023-03-26T12:29:19.099Z,35.33
2023-03-26T12:30:25.961Z,35.73
2023-03-26T12:31:30.421Z,35.37
2023-03-26T12:32:43.320Z,36.95
2023-03-26T12:34:06.410Z,37.52
2023-03-26T12:35:18.935Z,36.46
2023-03-26T12:36:24.692Z,36.98
2023-03-26T12:37:38.571Z,36.92
2023-03-26T12:38:42.437Z,36.82
2023-03-26T12:40:09.321Z,38.25
2023-03-26T12:44:42.056Z,38.66
2023-03-26T12:44:45.118Z,35.57
2023-03-26T12:44:57.674Z,35.08
2023-03-26T12:47:46.148Z,35.85
2023-03-26T12:47:59.035Z,35.21
2023-03-26T12:48:59.828Z,35.44
2023-03-26T12:50:01.949Z,35.86
2023-03-26T12:51:15.795Z,36.32
2023-03-26T12:52:53.125Z,36.99
2023-03-26T12:54:13.522Z,36.98
2023-03-26T12:55:28.895Z,36.20
2023-03-26T12:57:12.404Z,36.72
2023-03-26T12:58:42.787Z,36.95
2023-03-26T12:59:53.420Z,35.75
2023-03-26T13:01:18.782Z,35.96
2023-03-26T13:02:39.404Z,35.74
2023-03-26T13:04:15.142Z,35.20
2023-03-26T13:05:23.782Z,35.05
2023-03-26T13:06:33.677Z,34.26
2023-03-26T13:08:13.765Z,34.20
2023-03-26T13:09:57.540Z,34.75
2023-03-26T13:11:17.242Z,34.17
2023-03-26T13:12:38.292Z,33.74
2023-03-26T13:14:04.838Z,33.86
2023-03-26T13:15:17.873Z,31.88
2023-03-26T13:16:46.604Z,32.30
2023-03-26T13:17:57.965Z,33.60
2023-03-26T13:19:20.691Z,33.08
2023-03-26T13:20:35.093Z,32.81
2023-03-26T13:22:07.350Z,32.45
2023-03-26T13:23:32.670Z,30.96
2023-03-26T13:24:40.310Z,31.23
2023-03-26T13:26:00.887Z,32.16
2023-03-26T13:27:20.996Z,30.69
2023-03-26T13:28:36.519Z,31.22
2023-03-26T13:30:07.656Z,31.89
2023-03-26T13:31:23.990Z,32.39
2023-03-26T13:32:42.647Z,32.11
2023-03-26T13:34:19.275Z,31.97
2023-03-26T13:35:42.447Z,31.15
2023-03-26T13:37:07.406Z,30.57
2023-03-26T13:38:37.215Z,31.01
2023-03-26T13:40:10.233Z,31.02
2023-03-26T13:41:20.972Z,30.45
2023-03-26T13:42:28.917Z,31.07
2023-03-26T13:43:36.801Z,30.90
2023-03-26T13:45:05.193Z,31.27
2023-03-26T13:46:29.987Z,31.45
2023-03-26T13:47:38.468Z,31.29
2023-03-26T13:48:52.999Z,31.81
2023-03-26T13:50:14.431Z,31.97
2023-03-26T13:51:26.410Z,31.36
2023-03-26T13:52:37.586Z,30.35
2023-03-26T13:53:50.527Z,31.14
2023-03-26T13:55:03.748Z,30.52
2023-03-26T13:56:07.237Z,31.08
2023-03-26T13:57:17.340Z,31.74
2023-03-26T13:58:43.307Z,31.15
2023-03-26T13:59:56.369Z,30.78
2023-03-26T14:01:11.037Z,30.70
2023-03-26T14:02:22.912Z,30.20
2023-03-26T14:03:46.148Z,31.21
2023-03-26T14:04:53.641Z,31.73
2023-03-26T14:06:00.201Z,30.96
2023-03-26T14:07:15.718Z,30.79
2023-03-26T14:08:41.836Z,30.93
2023-03-26T14:09:56.990Z,31.33
2023-03-26T14:11:07.757Z,31.18
2023-03-26T14:12:34.101Z,30.84
2023-03-26T14:13:39.260Z,30.51
2023-03-26T14:14:49.057Z,30.90
2023-03-26T14:16:20.941Z,30.53
2023-03-26T14:18:07.346Z,30.94
2023-03-26T14:19:12.458Z,31.03
2023-03-26T14:20:29.289Z,31.52
2023-03-26T14:22:08.215Z,30.97
2023-03-26T14:23:31.160Z,31.64
2023-03-26T14:24:53.875Z,29.98
2023-03-26T14:26:20.218Z,30.78
2023-03-26T14:27:40.550Z,31.04
2023-03-26T14:28:59.362Z,31.79
2023-03-26T14:30:23.130Z,31.06
2023-03-26T14:31:34.229Z,31.75
2023-03-26T14:33:27.574Z,31.66
2023-03-26T14:35:11.139Z,32.22
2023-03-26T14:36:34.449Z,32.38
2023-03-26T14:37:51.637Z,31.99
2023-03-26T14:39:27.085Z,32.15
2023-03-26T14:40:58.596Z,32.51
2023-03-26T14:42:25.852Z,31.32
2023-03-26T14:43:43.678Z,31.66
2023-03-26T14:45:01.317Z,31.48
2023-03-26T14:46:31.387Z,29.83
2023-03-26T14:47:43.348Z,30.81
2023-03-26T14:49:07.061Z,30.00
2023-03-26T14:50:31.479Z,30.04
2023-03-26T14:51:52.269Z,30.11
2023-03-26T14:53:00.836Z,29.78
2023-03-26T14:54:17.209Z,29.75
2023-03-26T14:55:37.196Z,30.05
2023-03-26T14:57:00.325Z,30.25
2023-03-26T14:58:10.768Z,30.31
2023-03-26T14:59:47.280Z,30.04
2023-03-26T15:01:25.984Z,29.95
2023-03-26T15:03:07.479Z,29.51
2023-03-26T15:04:15.838Z,29.48
2023-03-26T15:05:36.825Z,30.16
2023-03-26T15:07:16.021Z,30.03
2023-03-26T15:08:38.942Z,30.42
2023-03-26T15:10:18.628Z,29.83
2023-03-26T15:12:12.686Z,30.14
2023-03-26T15:13:33.962Z,30.70
2023-03-26T15:14:51.068Z,30.06
2023-03-26T15:16:27.542Z,29.42
2023-03-26T15:17:34.476Z,28.92
2023-03-26T15:19:03.973Z,29.28
2023-03-26T15:20:31.989Z,29.19
2023-03-26T15:21:46.547Z,29.73
2023-03-26T15:23:07.401Z,29.63
2023-03-26T15:24:50.974Z,30.07
2023-03-26T15:26:24.177Z,30.39
2023-03-26T15:27:42.362Z,30.34
2023-03-26T15:28:56.576Z,30.24